Aérodrome :
LOGIN :

S'inscrire | Disclaimer

   EN    FR    IT 

 










Légende :    VFR   VFR Marginal   IFR   IFR Intensif   IFR Très Intensif
Visi : 
Plafond : 
>= 8 km
>= 3000ft
5 à 8 km
1000 à 3000 ft
1500m à 5 km
500 à 1000 ft
800 à 1500m
200 à 500 ft
< 800m
< 200 ft
Symboles :   Orages  Brouillard  Fortes neiges  Fortes précipitations  Vent > 20 kt
SIGMETs :   Divers  Orages  Givrage  Turbulence  Onde Orograph.  Cendres Volcan.






- Altitude de l'aérodrome : 538 ft
- Code IATA : TNF


LFPN - Toussus Le Noble

DERNIER METAR :
  • 212200Z AUTO 35006KT 5000 BR NSC M01/M03 Q1037

METARs EXPIRÉS :
  • 212130Z AUTO 35004KT 6000 NSC M01/M02 Q1038
  • 212100Z AUTO 35005KT 6000 NSC M01/M02 Q1038 NOSIG
  • 212030Z AUTO 35005KT 6000 NSC M01/M02 Q1038 NOSIG
  • 212000Z AUTO 01004KT 7000 NSC M01/M02 Q1038 NOSIG
  • 211930Z AUTO 02003KT 7000 NSC M00/M02 Q1038 NOSIG

TAF TAF LFPN
Valide du 21 à 18h jusqu'au 22 à 03h UTC


211700Z 2118/2203 04006KT CAVOK
PROB30
TEMPO 2201/2203 4000 BR
ATIS : +33 1 39 56 54 70



MET'MAP, la Météo Aéronautique d'un coup d'oeil ! - Copyright ORBIFLY Décembre 2007 - Disclaimer

ORBIFLY MET'MAP TEAM :

Programmation & Développement : Alexandra Zaïnal
Sur une idée originale de : Baudouin d'Aumeries
Assistance à la programmation : Marc-Olivier Méhu
Soutien technique & logistique : Manuel Goepfert

Contact : metmap@orbifly.com




SOURCES & CREDITS :

   NOAA